createdAt,value
2017-10-17T00:00:20.481Z,17.57
2017-10-17T00:02:47.699Z,18.23
2017-10-17T00:05:14.234Z,20.27
2017-10-17T00:07:41.479Z,17.57
2017-10-17T00:10:07.946Z,19.70
2017-10-17T00:12:35.182Z,19.10
2017-10-17T00:15:01.670Z,16.40
2017-10-17T00:17:28.132Z,24.47
2017-10-17T00:19:56.094Z,16.17
2017-10-17T00:22:22.609Z,19.67
2017-10-17T00:24:56.838Z,13.30
2017-10-17T00:27:23.386Z,17.33
2017-10-17T00:29:49.857Z,14.30
2017-10-17T00:32:17.077Z,14.37
2017-10-17T00:34:43.585Z,17.00
2017-10-17T00:37:10.045Z,14.93
2017-10-17T00:39:36.517Z,16.93
2017-10-17T00:42:03.699Z,15.10
2017-10-17T00:44:30.156Z,12.60
2017-10-17T00:46:57.478Z,10.73
2017-10-17T00:49:23.954Z,11.30
2017-10-17T00:51:50.398Z,11.77
2017-10-17T00:54:16.960Z,12.33
2017-10-17T00:56:44.153Z,9.57
2017-10-17T00:59:10.601Z,12.77
2017-10-17T01:01:37.076Z,12.20
2017-10-17T01:04:04.261Z,12.07
2017-10-17T01:06:30.791Z,13.10
2017-10-17T01:08:57.233Z,24.63
2017-10-17T01:11:23.859Z,14.27
2017-10-17T01:13:50.317Z,14.70
2017-10-17T01:16:16.774Z,14.10
2017-10-17T01:18:43.318Z,14.60
2017-10-17T01:21:14.425Z,17.70
2017-10-17T01:23:44.736Z,15.90
2017-10-17T01:26:13.889Z,14.50
2017-10-17T01:28:41.141Z,16.87
2017-10-17T01:31:08.371Z,16.50
2017-10-17T01:33:36.317Z,16.83
2017-10-17T01:36:02.794Z,14.87
2017-10-17T01:41:34.550Z,12.50
2017-10-17T01:44:23.295Z,13.77
2017-10-17T01:46:49.761Z,15.37
2017-10-17T01:49:32.683Z,12.40
2017-10-17T01:52:03.953Z,13.03
2017-10-17T01:54:30.493Z,15.57
2017-10-17T01:56:57.009Z,12.50
2017-10-17T01:59:34.145Z,14.30
2017-10-17T02:02:00.618Z,13.53
2017-10-17T02:04:27.826Z,17.23
2017-10-17T02:06:54.297Z,14.57
2017-10-17T02:09:21.486Z,13.70
2017-10-17T02:11:47.958Z,22.33
2017-10-17T02:14:14.532Z,11.80
2017-10-17T02:16:41.905Z,15.63
2017-10-17T02:19:12.209Z,15.30
2017-10-17T02:21:42.283Z,15.93
2017-10-17T02:24:08.873Z,13.87
2017-10-17T02:26:35.400Z,16.87
2017-10-17T02:29:11.525Z,15.77
2017-10-17T02:31:38.049Z,23.30
2017-10-17T02:37:14.846Z,20.43
2017-10-17T02:39:41.304Z,19.00
2017-10-17T02:42:07.749Z,17.27
2017-10-17T02:44:34.971Z,20.70
2017-10-17T02:47:01.417Z,43.00
2017-10-17T02:49:41.665Z,32.97
2017-10-17T02:52:09.770Z,24.70
2017-10-17T02:54:36.970Z,27.73
2017-10-17T02:57:03.452Z,19.03
2017-10-17T02:59:35.481Z,19.33
2017-10-17T03:02:01.945Z,17.30
2017-10-17T03:04:31.869Z,25.70
2017-10-17T03:06:59.037Z,17.70
2017-10-17T03:09:25.553Z,16.60
2017-10-17T03:11:52.813Z,17.80
2017-10-17T03:14:23.675Z,21.97
2017-10-17T03:16:50.190Z,21.60
2017-10-17T03:19:16.644Z,19.77
2017-10-17T03:22:00.902Z,23.60
2017-10-17T03:24:35.396Z,22.07
2017-10-17T03:27:01.865Z,17.33
2017-10-17T03:29:28.311Z,15.23
2017-10-17T03:31:54.773Z,16.37
2017-10-17T03:34:21.999Z,16.50
2017-10-17T03:36:53.307Z,19.63
2017-10-17T03:39:19.806Z,19.00
2017-10-17T03:41:47.049Z,16.27
2017-10-17T03:44:20.181Z,14.40
2017-10-17T03:46:46.679Z,16.30
2017-10-17T03:52:30.198Z,22.03
2017-10-17T03:54:56.741Z,15.60
2017-10-17T03:57:23.338Z,18.80
2017-10-17T03:59:51.747Z,16.00
2017-10-17T04:02:18.210Z,18.63
2017-10-17T04:05:02.234Z,20.07
2017-10-17T04:07:36.712Z,25.80
2017-10-17T04:10:21.024Z,19.83
2017-10-17T04:12:47.512Z,24.23
2017-10-17T04:15:13.985Z,24.10
2017-10-17T04:17:41.339Z,19.30
2017-10-17T04:20:14.920Z,18.17
2017-10-17T04:22:41.438Z,18.03
2017-10-17T04:25:11.888Z,16.70
2017-10-17T04:27:45.458Z,15.87
2017-10-17T04:30:22.952Z,18.70
2017-10-17T04:32:50.237Z,212.50
2017-10-17T04:35:16.709Z,402.53
2017-10-17T04:37:46.994Z,27.93
2017-10-17T04:40:15.890Z,17.67
2017-10-17T04:43:03.265Z,19.07
2017-10-17T04:45:49.301Z,21.53
2017-10-17T04:48:38.592Z,48.13
2017-10-17T04:51:26.602Z,31.73
2017-10-17T04:54:20.037Z,50.37
2017-10-17T04:57:00.431Z,27.20
2017-10-17T04:59:47.818Z,28.37
2017-10-17T05:02:30.941Z,17.33
2017-10-17T05:05:19.217Z,14.10
2017-10-17T05:07:59.485Z,31.03
2017-10-17T05:10:32.191Z,16.80
2017-10-17T05:13:20.727Z,28.53
2017-10-17T05:16:00.930Z,17.30
2017-10-17T05:18:42.489Z,22.17
2017-10-17T05:21:09.755Z,17.80
2017-10-17T05:23:55.026Z,14.63
2017-10-17T05:26:22.228Z,16.80
2017-10-17T05:28:53.368Z,17.90
2017-10-17T05:31:20.796Z,18.43
2017-10-17T05:33:48.031Z,18.13
2017-10-17T05:36:15.327Z,15.70
2017-10-17T05:38:41.794Z,13.93
2017-10-17T05:41:09.083Z,13.37
2017-10-17T05:43:40.398Z,13.23
2017-10-17T05:46:06.864Z,14.13
2017-10-17T05:48:33.405Z,17.87
2017-10-17T05:51:02.499Z,13.00
2017-10-17T05:53:29.079Z,14.10
2017-10-17T05:55:57.005Z,13.40
2017-10-17T05:58:23.469Z,19.77
2017-10-17T06:00:49.933Z,17.77
2017-10-17T06:03:17.981Z,15.23
2017-10-17T06:05:44.441Z,21.70
2017-10-17T06:08:10.883Z,14.20
2017-10-17T06:10:38.135Z,14.27
2017-10-17T06:13:04.686Z,14.90
2017-10-17T06:15:31.860Z,17.67
2017-10-17T06:17:58.305Z,23.60
2017-10-17T06:20:24.814Z,35.87
2017-10-17T06:22:51.229Z,21.97
2017-10-17T06:25:18.455Z,16.37
2017-10-17T06:27:44.900Z,17.10
2017-10-17T06:30:12.057Z,17.07
2017-10-17T06:32:39.244Z,25.47
2017-10-17T06:35:05.690Z,17.17
2017-10-17T06:37:32.130Z,20.80
2017-10-17T06:39:59.373Z,14.40
2017-10-17T06:42:25.810Z,14.03
2017-10-17T06:44:52.255Z,20.63
2017-10-17T06:47:18.717Z,16.83
2017-10-17T06:49:45.154Z,15.20
2017-10-17T06:52:12.366Z,16.70
2017-10-17T06:54:38.868Z,27.70
2017-10-17T06:57:05.332Z,17.93
2017-10-17T06:59:31.805Z,17.47
2017-10-17T07:01:58.992Z,16.43
2017-10-17T07:04:25.429Z,18.47
2017-10-17T07:06:51.975Z,18.10
2017-10-17T07:09:18.492Z,15.50
2017-10-17T07:11:44.932Z,14.97
2017-10-17T07:14:11.363Z,15.70
2017-10-17T07:16:37.832Z,13.37
2017-10-17T07:19:04.339Z,14.47
2017-10-17T07:21:30.818Z,11.60
2017-10-17T07:23:57.277Z,13.57
2017-10-17T07:26:24.553Z,12.90
2017-10-17T07:28:51.016Z,9.23
2017-10-17T07:31:17.465Z,15.83
2017-10-17T07:33:43.895Z,11.50
2017-10-17T07:36:10.349Z,27.20
2017-10-17T07:38:36.780Z,9.17
2017-10-17T07:41:03.260Z,13.63
2017-10-17T07:43:29.800Z,13.23
2017-10-17T07:45:56.292Z,11.53
2017-10-17T07:48:23.583Z,14.33
2017-10-17T07:50:50.086Z,11.53
2017-10-17T07:53:17.329Z,15.10
2017-10-17T07:55:44.539Z,14.00
2017-10-17T07:58:12.521Z,9.97
2017-10-17T08:00:38.953Z,12.47
2017-10-17T08:03:05.411Z,15.40
2017-10-17T08:05:32.668Z,13.83
2017-10-17T08:07:59.876Z,18.67
2017-10-17T08:10:26.299Z,15.80
2017-10-17T08:12:52.742Z,13.27
2017-10-17T08:15:19.178Z,13.30
2017-10-17T08:17:45.597Z,14.60
2017-10-17T08:20:12.034Z,15.70
2017-10-17T08:22:40.228Z,17.23
2017-10-17T08:25:06.662Z,15.43
2017-10-17T08:27:33.080Z,15.77
2017-10-17T08:29:59.512Z,21.80
2017-10-17T08:32:25.937Z,21.17
2017-10-17T08:34:52.347Z,17.87
2017-10-17T08:37:18.794Z,12.70
2017-10-17T08:39:45.193Z,14.37
2017-10-17T08:42:12.372Z,17.93
2017-10-17T08:44:38.805Z,13.60
2017-10-17T08:47:05.232Z,14.80
2017-10-17T08:49:31.675Z,13.33
2017-10-17T08:51:58.124Z,17.40
2017-10-17T08:54:24.567Z,14.27
2017-10-17T08:56:50.989Z,18.00
2017-10-17T08:59:17.437Z,11.97
2017-10-17T09:01:43.878Z,13.77
2017-10-17T09:04:10.301Z,21.23
2017-10-17T09:06:37.417Z,15.13
2017-10-17T09:09:03.886Z,14.07
2017-10-17T09:11:30.326Z,13.07
2017-10-17T09:13:56.746Z,15.37
2017-10-17T09:16:23.146Z,16.07
2017-10-17T09:18:50.301Z,20.30
2017-10-17T09:21:16.735Z,20.50
2017-10-17T09:23:43.196Z,15.80
2017-10-17T09:26:09.597Z,18.53
2017-10-17T09:28:36.036Z,17.57
2017-10-17T09:31:02.481Z,19.40
2017-10-17T09:33:28.936Z,17.97
2017-10-17T09:35:55.517Z,21.70
2017-10-17T09:38:21.975Z,19.40
2017-10-17T09:40:48.424Z,21.03
2017-10-17T09:43:14.817Z,22.90
2017-10-17T09:45:41.950Z,20.97
2017-10-17T09:48:08.345Z,27.00
2017-10-17T09:50:34.774Z,23.80
2017-10-17T09:53:01.181Z,28.47
2017-10-17T09:55:27.612Z,27.43
2017-10-17T09:57:54.034Z,32.90
2017-10-17T10:00:20.440Z,33.07
2017-10-17T10:02:46.828Z,25.10
2017-10-17T10:05:13.300Z,26.40
2017-10-17T10:07:39.817Z,26.20
2017-10-17T10:10:06.281Z,27.00
2017-10-17T10:12:33.468Z,32.50
2017-10-17T10:14:59.902Z,27.47
2017-10-17T10:17:26.355Z,30.13
2017-10-17T10:19:52.788Z,31.53
2017-10-17T10:22:19.244Z,40.00
2017-10-17T10:24:45.696Z,38.63
2017-10-17T10:27:12.102Z,36.30
2017-10-17T10:29:38.521Z,32.17
2017-10-17T10:32:04.917Z,36.00
2017-10-17T10:34:32.051Z,32.87
2017-10-17T10:36:58.484Z,36.53
2017-10-17T10:39:25.655Z,38.10
2017-10-17T10:41:52.113Z,30.40
2017-10-17T10:44:18.590Z,30.83
2017-10-17T10:46:45.044Z,31.77
2017-10-17T10:49:12.219Z,27.10
2017-10-17T10:51:38.649Z,31.43
2017-10-17T10:54:05.026Z,26.43
2017-10-17T10:56:31.419Z,18.00
2017-10-17T10:58:57.848Z,22.07
2017-10-17T11:01:24.248Z,27.70
2017-10-17T11:03:50.677Z,22.93
2017-10-17T11:06:22.133Z,17.80
2017-10-17T11:08:49.284Z,24.57
2017-10-17T11:11:16.415Z,19.33
2017-10-17T11:13:44.374Z,17.23
2017-10-17T11:16:10.806Z,16.23
2017-10-17T11:18:37.197Z,15.93
2017-10-17T11:21:03.597Z,11.37
2017-10-17T11:23:30.763Z,7.40
2017-10-17T11:25:57.908Z,8.40
2017-10-17T11:28:25.061Z,6.10
2017-10-17T11:30:52.245Z,8.03
2017-10-17T11:33:18.679Z,7.87
2017-10-17T11:35:45.151Z,8.97
2017-10-17T11:38:12.304Z,6.37
2017-10-17T11:40:51.921Z,15.90
2017-10-17T11:43:30.695Z,12.50
2017-10-17T11:45:57.844Z,15.37
2017-10-17T11:48:25.032Z,14.43
2017-10-17T11:50:51.519Z,14.50
2017-10-17T11:53:18.724Z,7.60
2017-10-17T11:55:46.686Z,6.50
2017-10-17T11:58:13.110Z,10.93
2017-10-17T12:00:39.586Z,11.40
2017-10-17T12:03:06.102Z,11.37
2017-10-17T12:05:32.575Z,11.87
2017-10-17T12:07:59.770Z,12.10
2017-10-17T12:10:26.233Z,11.50
2017-10-17T12:12:52.683Z,14.20
2017-10-17T12:15:19.162Z,9.83
2017-10-17T12:18:00.569Z,9.23
2017-10-17T12:20:27.158Z,7.40
2017-10-17T12:22:54.328Z,9.90
2017-10-17T12:25:20.740Z,10.77
2017-10-17T12:27:47.907Z,7.43
2017-10-17T12:30:14.359Z,9.00
2017-10-17T12:32:40.754Z,10.47
2017-10-17T12:35:07.903Z,8.53
2017-10-17T12:37:35.808Z,6.83
2017-10-17T12:40:02.246Z,10.70
2017-10-17T12:42:28.630Z,8.27
2017-10-17T12:44:55.770Z,10.43
2017-10-17T12:47:22.283Z,8.97
2017-10-17T12:49:48.781Z,10.10
2017-10-17T12:52:15.195Z,4.87
2017-10-17T12:54:42.368Z,4.90
2017-10-17T12:57:08.771Z,6.50
2017-10-17T12:59:35.199Z,7.07
2017-10-17T13:02:01.614Z,6.10
2017-10-17T13:04:28.065Z,6.50
2017-10-17T13:06:55.292Z,8.00
2017-10-17T13:09:21.858Z,6.40
2017-10-17T13:11:49.091Z,7.97
2017-10-17T13:14:17.018Z,7.87
2017-10-17T13:16:44.259Z,6.50
2017-10-17T13:19:10.723Z,5.97
2017-10-17T13:21:37.223Z,7.20
2017-10-17T13:24:03.801Z,6.80
2017-10-17T13:26:30.240Z,9.03
2017-10-17T13:28:56.704Z,5.90
2017-10-17T13:31:23.176Z,11.83
2017-10-17T13:33:49.618Z,6.70
2017-10-17T13:36:16.021Z,12.13
2017-10-17T13:38:43.151Z,9.67
2017-10-17T13:41:11.024Z,5.63
2017-10-17T13:43:37.441Z,8.23
2017-10-17T13:46:05.323Z,8.37
2017-10-17T13:48:31.757Z,8.57
2017-10-17T13:50:58.188Z,10.67
2017-10-17T13:53:25.366Z,8.20
2017-10-17T13:55:51.790Z,31.50
2017-10-17T13:58:19.009Z,29.33
2017-10-17T14:00:45.518Z,12.27
2017-10-17T14:03:11.953Z,14.70
2017-10-17T14:05:38.357Z,6.10
2017-10-17T14:08:04.772Z,9.80
2017-10-17T14:10:31.972Z,7.27
2017-10-17T14:12:58.419Z,8.30
2017-10-17T14:15:24.818Z,6.37
2017-10-17T14:18:06.134Z,11.30
2017-10-17T14:20:32.568Z,8.00
2017-10-17T14:22:58.992Z,8.00
2017-10-17T14:25:25.394Z,8.80
2017-10-17T14:27:51.799Z,11.00
2017-10-17T14:30:18.989Z,7.00
2017-10-17T14:32:45.418Z,7.70
2017-10-17T14:35:11.817Z,6.93
2017-10-17T14:37:38.959Z,11.53
2017-10-17T14:40:06.141Z,14.23
2017-10-17T14:42:32.566Z,14.43
2017-10-17T14:44:58.976Z,15.83
2017-10-17T14:47:26.207Z,17.20
2017-10-17T14:49:52.598Z,18.00
2017-10-17T14:52:19.069Z,13.77
2017-10-17T14:54:45.463Z,19.77
2017-10-17T14:57:11.892Z,17.73
2017-10-17T14:59:38.299Z,16.00
2017-10-17T15:02:05.494Z,15.70
2017-10-17T15:04:31.937Z,18.33
2017-10-17T15:06:58.341Z,19.07
2017-10-17T15:09:24.741Z,24.40
2017-10-17T15:11:51.870Z,22.70
2017-10-17T15:14:18.249Z,19.23
2017-10-17T15:16:45.424Z,19.57
2017-10-17T15:19:11.817Z,24.47
2017-10-17T15:21:38.976Z,19.47
2017-10-17T15:24:05.395Z,20.30
2017-10-17T15:26:32.532Z,19.57
2017-10-17T15:28:59.676Z,17.40
2017-10-17T15:33:46.861Z,19.93
2017-10-17T15:36:20.334Z,17.33
2017-10-17T15:38:46.755Z,23.90
2017-10-17T15:41:13.948Z,21.60
2017-10-17T15:43:40.390Z,19.50
2017-10-17T15:46:06.805Z,21.97
2017-10-17T15:48:33.212Z,25.20
2017-10-17T15:51:00.359Z,93.40
2017-10-17T15:53:27.517Z,68.73
2017-10-17T15:55:54.683Z,25.93
2017-10-17T15:58:21.218Z,23.80
2017-10-17T16:00:47.659Z,22.03
2017-10-17T16:03:14.146Z,30.10
2017-10-17T16:05:41.308Z,23.83
2017-10-17T16:08:08.541Z,27.90
2017-10-17T16:10:34.966Z,28.57
2017-10-17T16:13:01.407Z,34.20
2017-10-17T16:15:27.810Z,35.93
2017-10-17T16:17:54.224Z,36.77
2017-10-17T16:20:20.622Z,36.33
2017-10-17T16:22:47.097Z,40.63
2017-10-17T16:25:13.508Z,48.50
2017-10-17T16:27:40.698Z,54.27
2017-10-17T16:30:07.105Z,42.13
2017-10-17T16:32:33.527Z,49.20
2017-10-17T16:34:59.973Z,42.03
2017-10-17T16:37:26.391Z,49.00
2017-10-17T16:39:53.525Z,51.13
2017-10-17T16:42:20.716Z,53.03
2017-10-17T16:44:47.109Z,47.87
2017-10-17T16:47:13.506Z,55.50
2017-10-17T16:49:39.910Z,49.40
2017-10-17T16:52:06.374Z,62.73
2017-10-17T16:54:32.779Z,68.00
2017-10-17T16:56:59.196Z,100.63
2017-10-17T16:59:25.643Z,67.23
2017-10-17T17:01:52.082Z,82.10
2017-10-17T17:04:18.532Z,59.13
2017-10-17T17:06:44.930Z,80.97
2017-10-17T17:09:11.349Z,75.20
2017-10-17T17:11:38.519Z,66.00
2017-10-17T17:14:05.009Z,63.80
2017-10-17T17:16:31.416Z,67.97
2017-10-17T17:18:57.913Z,54.37
2017-10-17T17:21:24.329Z,51.07
2017-10-17T17:23:51.471Z,56.03
2017-10-17T17:26:17.879Z,56.70
2017-10-17T17:28:44.336Z,61.93
2017-10-17T17:31:11.510Z,50.60
2017-10-17T17:33:38.699Z,58.90
2017-10-17T17:36:05.988Z,53.93
2017-10-17T17:38:32.380Z,57.97
2017-10-17T17:40:58.794Z,66.50
2017-10-17T17:43:25.217Z,64.57
2017-10-17T17:45:51.691Z,58.93
2017-10-17T17:48:18.118Z,64.77
2017-10-17T17:50:44.529Z,65.97
2017-10-17T17:53:10.984Z,65.87
2017-10-17T17:55:37.475Z,65.03
2017-10-17T17:58:03.898Z,68.97
2017-10-17T18:00:31.151Z,67.83
2017-10-17T18:02:58.322Z,69.37
2017-10-17T18:05:24.743Z,90.67
2017-10-17T18:07:51.163Z,90.73
2017-10-17T18:10:18.447Z,72.43
2017-10-17T18:12:44.837Z,78.87
2017-10-17T18:15:11.312Z,75.57
2017-10-17T18:17:37.725Z,71.70
2017-10-17T18:20:04.202Z,66.40
2017-10-17T18:22:30.589Z,71.07
2017-10-17T18:24:57.737Z,71.77
2017-10-17T18:27:24.914Z,71.73
2017-10-17T18:29:51.312Z,74.17
2017-10-17T18:32:18.488Z,75.10
2017-10-17T18:34:44.894Z,68.50
2017-10-17T18:37:11.303Z,69.70
2017-10-17T18:39:37.716Z,86.83
2017-10-17T18:42:04.638Z,87.57
2017-10-17T18:44:31.110Z,78.23
2017-10-17T18:46:57.520Z,78.87
2017-10-17T18:49:23.919Z,81.13
2017-10-17T18:51:51.112Z,79.83
2017-10-17T18:54:17.544Z,78.20
2017-10-17T18:56:44.015Z,76.70
2017-10-17T18:59:11.213Z,76.93
2017-10-17T19:01:37.667Z,74.43
2017-10-17T19:04:05.043Z,89.03
2017-10-17T19:06:32.207Z,93.50
2017-10-17T19:08:59.348Z,91.23
2017-10-17T19:11:25.777Z,90.33
2017-10-17T19:13:52.185Z,88.90
2017-10-17T19:16:18.654Z,93.87
2017-10-17T19:18:45.162Z,97.00
2017-10-17T19:21:11.577Z,104.20
2017-10-17T19:23:37.984Z,97.20
2017-10-17T19:26:04.374Z,103.20
2017-10-17T19:28:30.769Z,105.20
2017-10-17T19:30:57.200Z,110.77
2017-10-17T19:33:23.690Z,120.07
2017-10-17T19:35:50.840Z,119.23
2017-10-17T19:38:18.020Z,127.03
2017-10-17T19:40:44.441Z,115.67
2017-10-17T19:43:11.600Z,106.37
2017-10-17T19:45:38.038Z,89.70
2017-10-17T19:48:04.438Z,81.80
2017-10-17T19:50:30.809Z,81.90
2017-10-17T19:52:57.250Z,100.03
2017-10-17T19:55:24.490Z,82.20
2017-10-17T19:57:50.933Z,94.70
2017-10-17T20:00:17.436Z,120.07
2017-10-17T20:02:44.619Z,125.37
2017-10-17T20:05:11.045Z,125.17
2017-10-17T20:07:37.529Z,144.63
2017-10-17T20:10:04.711Z,113.90
2017-10-17T20:12:31.913Z,111.20
2017-10-17T20:14:58.321Z,113.50
2017-10-17T20:17:24.754Z,127.37
2017-10-17T20:19:51.220Z,88.47
2017-10-17T20:22:17.689Z,103.07
2017-10-17T20:24:44.841Z,87.53
2017-10-17T20:27:12.069Z,86.93
2017-10-17T20:29:38.535Z,78.37
2017-10-17T20:32:04.991Z,84.40
2017-10-17T20:34:31.408Z,70.27
2017-10-17T20:36:57.806Z,126.00
2017-10-17T20:39:24.241Z,80.37
2017-10-17T20:41:50.654Z,70.20
2017-10-17T20:44:17.097Z,73.63
2017-10-17T20:46:43.521Z,78.53
2017-10-17T20:49:09.953Z,74.70
2017-10-17T20:51:36.370Z,74.83
2017-10-17T20:54:02.792Z,74.30
2017-10-17T20:56:29.208Z,61.43
2017-10-17T20:58:55.623Z,76.23
2017-10-17T21:01:22.789Z,100.57
2017-10-17T21:03:49.193Z,321.03
2017-10-17T21:06:16.559Z,131.37
2017-10-17T21:08:43.696Z,147.23
2017-10-17T21:11:10.837Z,97.93
2017-10-17T21:13:37.262Z,91.03
2017-10-17T21:16:03.706Z,90.73
2017-10-17T21:18:30.132Z,84.40
2017-10-17T21:20:56.537Z,98.57
2017-10-17T21:23:22.993Z,75.37
2017-10-17T21:25:49.468Z,120.43
2017-10-17T21:28:15.902Z,93.33
2017-10-17T21:33:23.503Z,569.93
2017-10-17T21:35:50.646Z,466.27
2017-10-17T21:38:17.773Z,284.10
2017-10-17T21:40:44.254Z,87.73
2017-10-17T21:43:10.657Z,194.37
2017-10-17T21:45:37.099Z,151.53
2017-10-17T21:48:04.254Z,100.87
2017-10-17T21:50:31.385Z,82.00
2017-10-17T21:52:58.557Z,243.77
2017-10-17T21:55:24.997Z,94.63
2017-10-17T21:57:51.411Z,195.63
2017-10-17T22:00:18.615Z,282.67
2017-10-17T22:02:45.039Z,115.87
2017-10-17T22:05:11.484Z,90.60
2017-10-17T22:07:37.907Z,105.63
2017-10-17T22:10:04.327Z,127.43
2017-10-17T22:12:30.772Z,186.17
2017-10-17T22:14:57.181Z,100.23
2017-10-17T22:17:23.589Z,213.43
2017-10-17T22:19:50.741Z,191.00
2017-10-17T22:22:17.902Z,151.77
2017-10-17T22:24:45.054Z,215.10
2017-10-17T22:27:11.467Z,519.53
2017-10-17T22:29:38.674Z,92.40
2017-10-17T22:32:05.086Z,159.53
2017-10-17T22:34:31.488Z,143.73
2017-10-17T22:36:58.662Z,226.90
2017-10-17T22:39:25.073Z,125.67
2017-10-17T22:41:52.219Z,259.10
2017-10-17T22:44:19.364Z,257.27
2017-10-17T22:46:46.573Z,284.20
2017-10-17T22:49:13.797Z,121.93
2017-10-17T22:51:40.209Z,254.07
2017-10-17T22:54:07.384Z,325.23
2017-10-17T22:56:33.813Z,230.60
2017-10-17T22:59:00.230Z,191.47
2017-10-17T23:01:27.369Z,390.93
2017-10-17T23:03:54.523Z,307.67
2017-10-17T23:06:21.693Z,318.97
2017-10-17T23:08:48.835Z,284.93
2017-10-17T23:11:15.975Z,220.53
2017-10-17T23:13:43.111Z,350.00
2017-10-17T23:16:10.289Z,311.43
2017-10-17T23:19:00.493Z,332.57
2017-10-17T23:21:26.884Z,245.27
2017-10-17T23:23:54.010Z,119.40
2017-10-17T23:26:20.424Z,270.77
2017-10-17T23:28:46.838Z,128.10
2017-10-17T23:31:13.259Z,162.17
2017-10-17T23:33:39.663Z,364.10
2017-10-17T23:36:06.851Z,230.87
2017-10-17T23:38:33.378Z,207.23
2017-10-17T23:40:59.796Z,315.40
2017-10-17T23:43:26.946Z,243.03
2017-10-17T23:45:54.109Z,254.10
2017-10-17T23:48:20.515Z,277.27
2017-10-17T23:50:46.915Z,303.23
2017-10-17T23:53:13.348Z,240.37
2017-10-17T23:55:39.730Z,108.90
2017-10-17T23:58:06.909Z,178.07
